createdAt,value
2018-07-17T00:00:19.411Z,2.97
2018-07-17T00:02:47.744Z,2.47
2018-07-17T00:05:16.088Z,2.40
2018-07-17T00:07:44.443Z,2.63
2018-07-17T00:10:12.765Z,2.87
2018-07-17T00:12:41.144Z,2.50
2018-07-17T00:15:09.484Z,2.47
2018-07-17T00:17:37.823Z,3.00
2018-07-17T00:20:06.160Z,3.07
2018-07-17T00:22:34.532Z,2.67
2018-07-17T00:25:03.848Z,4.33
2018-07-17T00:27:32.163Z,3.63
2018-07-17T00:30:00.481Z,3.00
2018-07-17T00:32:29.321Z,3.00
2018-07-17T00:34:57.984Z,3.17
2018-07-17T00:37:26.324Z,2.57
2018-07-17T00:39:54.635Z,3.80
2018-07-17T00:42:22.959Z,3.50
2018-07-17T00:44:51.263Z,4.20
2018-07-17T00:47:19.579Z,5.00
2018-07-17T00:49:47.936Z,4.27
2018-07-17T00:52:16.419Z,4.33
2018-07-17T00:54:44.743Z,4.10
2018-07-17T00:57:13.084Z,4.17
2018-07-17T00:59:41.427Z,4.37
2018-07-17T01:02:14.880Z,3.80
2018-07-17T01:04:48.620Z,3.80
2018-07-17T01:07:22.321Z,4.10
2018-07-17T01:09:55.916Z,4.20
2018-07-17T01:12:23.500Z,4.30
2018-07-17T01:14:55.496Z,4.97
2018-07-17T01:17:24.331Z,4.50
2018-07-17T01:19:52.655Z,4.93
2018-07-17T01:22:20.963Z,5.17
2018-07-17T01:24:49.323Z,4.20
2018-07-17T01:27:17.719Z,4.67
2018-07-17T01:29:46.539Z,4.53
2018-07-17T01:32:15.947Z,4.77
2018-07-17T01:34:44.247Z,5.40
2018-07-17T01:37:12.592Z,4.70
2018-07-17T01:39:40.928Z,4.70
2018-07-17T01:42:09.283Z,5.20
2018-07-17T01:44:37.572Z,4.90
2018-07-17T01:47:05.919Z,5.60
2018-07-17T01:49:34.267Z,5.10
2018-07-17T01:52:02.581Z,5.40
2018-07-17T01:54:30.901Z,4.60
2018-07-17T01:56:59.204Z,3.97
2018-07-17T01:59:28.196Z,3.53
2018-07-17T02:01:56.483Z,4.30
2018-07-17T02:04:24.876Z,4.00
2018-07-17T02:06:53.732Z,4.60
2018-07-17T02:09:22.040Z,5.10
2018-07-17T02:11:50.355Z,3.97
2018-07-17T02:14:18.672Z,3.80
2018-07-17T02:16:46.984Z,3.40
2018-07-17T02:19:15.313Z,3.80
2018-07-17T02:21:43.615Z,3.90
2018-07-17T02:24:11.937Z,3.90
2018-07-17T02:26:40.304Z,5.10
2018-07-17T02:29:08.620Z,4.40
2018-07-17T02:31:36.952Z,4.67
2018-07-17T02:34:05.353Z,3.70
2018-07-17T02:36:33.673Z,4.77
2018-07-17T02:39:01.985Z,4.70
2018-07-17T02:41:30.332Z,4.67
2018-07-17T02:43:58.652Z,3.70
2018-07-17T02:46:26.986Z,3.93
2018-07-17T02:48:55.300Z,4.77
2018-07-17T02:51:23.656Z,4.13
2018-07-17T02:53:51.964Z,4.40
2018-07-17T02:56:20.296Z,4.20
2018-07-17T02:58:48.716Z,4.73
2018-07-17T03:01:17.049Z,4.90
2018-07-17T03:03:45.343Z,4.40
2018-07-17T03:06:13.669Z,5.40
2018-07-17T03:08:41.988Z,5.07
2018-07-17T03:11:10.306Z,5.87
2018-07-17T03:13:38.616Z,4.97
2018-07-17T03:16:06.952Z,5.53
2018-07-17T03:18:35.288Z,6.80
2018-07-17T03:21:03.680Z,6.07
2018-07-17T03:23:32.036Z,6.30
2018-07-17T03:26:00.344Z,6.90
2018-07-17T03:28:28.692Z,6.00
2018-07-17T03:30:56.996Z,7.13
2018-07-17T03:33:25.348Z,6.70
2018-07-17T03:35:53.676Z,6.60
2018-07-17T03:38:22.015Z,8.03
2018-07-17T03:40:50.335Z,6.93
2018-07-17T03:43:18.636Z,8.43
2018-07-17T03:45:46.968Z,9.13
2018-07-17T03:48:15.280Z,7.60
2018-07-17T03:50:43.636Z,8.63
2018-07-17T03:53:11.992Z,7.60
2018-07-17T03:55:40.376Z,8.57
2018-07-17T03:58:08.713Z,8.20
2018-07-17T04:00:37.024Z,7.90
2018-07-17T04:03:05.344Z,8.60
2018-07-17T04:05:33.700Z,8.87
2018-07-17T04:08:02.006Z,7.43
2018-07-17T04:10:30.353Z,8.07
2018-07-17T04:12:58.660Z,8.50
2018-07-17T04:15:26.985Z,8.03
2018-07-17T04:17:55.337Z,8.60
2018-07-17T04:20:23.630Z,7.30
2018-07-17T04:22:52.057Z,8.10
2018-07-17T04:25:20.604Z,7.53
2018-07-17T04:27:48.920Z,7.77
2018-07-17T04:30:17.281Z,8.30
2018-07-17T04:32:45.585Z,9.03
2018-07-17T04:35:14.615Z,10.17
2018-07-17T04:37:43.520Z,8.60
2018-07-17T04:40:11.847Z,9.30
2018-07-17T04:42:40.164Z,9.37
2018-07-17T04:45:08.484Z,9.33
2018-07-17T04:47:36.825Z,8.73
2018-07-17T04:50:05.184Z,8.87
2018-07-17T04:52:33.553Z,10.00
2018-07-17T04:55:02.363Z,8.87
2018-07-17T04:57:30.688Z,10.20
2018-07-17T04:59:59.015Z,8.43
2018-07-17T05:02:27.319Z,10.40
2018-07-17T05:04:55.913Z,9.23
2018-07-17T05:07:24.249Z,8.67
2018-07-17T05:09:52.568Z,9.10
2018-07-17T05:12:20.896Z,9.20
2018-07-17T05:14:49.200Z,9.17
2018-07-17T05:17:17.524Z,8.00
2018-07-17T05:19:45.855Z,8.03
2018-07-17T05:22:14.184Z,7.17
2018-07-17T05:24:43.183Z,8.63
2018-07-17T05:27:11.544Z,8.40
2018-07-17T05:29:39.948Z,7.60
2018-07-17T05:32:08.340Z,7.70
2018-07-17T05:34:36.667Z,7.20
2018-07-17T05:37:05.051Z,7.67
2018-07-17T05:39:33.379Z,7.00
2018-07-17T05:42:01.752Z,7.07
2018-07-17T05:44:30.058Z,7.20
2018-07-17T05:46:58.388Z,8.00
2018-07-17T05:49:26.797Z,6.13
2018-07-17T05:51:55.443Z,6.40
2018-07-17T05:54:23.771Z,6.30
2018-07-17T05:56:53.236Z,6.90
2018-07-17T05:59:21.756Z,6.60
2018-07-17T06:01:50.105Z,8.10
2018-07-17T06:04:18.447Z,6.50
2018-07-17T06:06:46.767Z,7.17
2018-07-17T06:09:15.142Z,7.83
2018-07-17T06:11:43.459Z,8.20
2018-07-17T06:14:12.168Z,8.50
2018-07-17T06:16:40.525Z,8.17
2018-07-17T06:19:08.909Z,7.87
2018-07-17T06:21:37.244Z,7.17
2018-07-17T06:24:05.637Z,8.20
2018-07-17T06:26:34.665Z,9.23
2018-07-17T06:29:02.952Z,7.60
2018-07-17T06:31:33.340Z,7.63
2018-07-17T06:34:01.639Z,6.57
2018-07-17T06:36:29.941Z,5.73
2018-07-17T06:38:58.338Z,7.13
2018-07-17T06:41:26.573Z,7.77
2018-07-17T06:43:54.887Z,7.90
2018-07-17T06:46:23.200Z,8.40
2018-07-17T06:48:51.521Z,7.40
2018-07-17T06:51:20.224Z,8.13
2018-07-17T06:53:48.541Z,7.73
2018-07-17T06:56:16.876Z,6.90
2018-07-17T06:58:45.205Z,6.77
2018-07-17T07:01:14.156Z,9.37
2018-07-17T07:03:42.791Z,6.80
2018-07-17T07:06:11.140Z,8.03
2018-07-17T07:08:40.269Z,8.70
2018-07-17T07:11:08.676Z,8.40
2018-07-17T07:13:37.027Z,8.43
2018-07-17T07:16:05.574Z,7.83
2018-07-17T07:18:34.047Z,8.97
2018-07-17T07:21:02.358Z,8.60
2018-07-17T07:23:30.852Z,8.60
2018-07-17T07:25:59.208Z,10.60
2018-07-17T07:28:27.515Z,10.40
2018-07-17T07:30:55.847Z,11.77
2018-07-17T07:33:24.156Z,11.83
2018-07-17T07:35:52.504Z,11.53
2018-07-17T07:38:20.840Z,13.57
2018-07-17T07:40:49.155Z,12.63
2018-07-17T07:43:17.480Z,11.57
2018-07-17T07:45:45.791Z,13.30
2018-07-17T07:48:14.220Z,12.43
2018-07-17T07:50:42.525Z,12.40
2018-07-17T07:53:10.860Z,11.73
2018-07-17T07:55:39.250Z,13.03
2018-07-17T07:58:08.022Z,12.73
2018-07-17T08:00:36.412Z,12.03
2018-07-17T08:03:04.780Z,12.07
2018-07-17T08:05:33.085Z,12.10
2018-07-17T08:08:01.461Z,11.10
2018-07-17T08:10:29.819Z,13.07
2018-07-17T08:12:58.184Z,12.60
2018-07-17T08:15:26.496Z,10.70
2018-07-17T08:17:54.815Z,11.33
2018-07-17T08:20:23.837Z,12.17
2018-07-17T08:22:52.160Z,10.90
2018-07-17T08:25:20.523Z,9.77
2018-07-17T08:27:48.846Z,9.67
2018-07-17T08:30:17.184Z,11.00
2018-07-17T08:32:45.552Z,10.40
2018-07-17T08:35:13.909Z,10.07
2018-07-17T08:37:42.219Z,9.27
2018-07-17T08:40:10.613Z,8.27
2018-07-17T08:42:38.934Z,8.30
2018-07-17T08:45:07.404Z,8.40
2018-07-17T08:47:35.804Z,7.67
2018-07-17T08:50:04.135Z,8.00
2018-07-17T08:52:32.515Z,6.60
2018-07-17T08:55:01.301Z,5.60
2018-07-17T08:57:29.631Z,4.17
2018-07-17T08:59:57.932Z,4.57
2018-07-17T09:02:26.308Z,5.63
2018-07-17T09:04:54.912Z,4.90
2018-07-17T09:07:23.279Z,4.50
2018-07-17T09:09:51.595Z,4.80
2018-07-17T09:12:19.911Z,4.60
2018-07-17T09:14:48.236Z,5.03
2018-07-17T09:17:16.799Z,6.23
2018-07-17T09:19:45.145Z,5.73
2018-07-17T09:22:13.663Z,5.33
2018-07-17T09:24:42.014Z,4.87
2018-07-17T09:27:10.372Z,4.57
2018-07-17T09:29:38.731Z,4.80
2018-07-17T09:32:07.084Z,5.80
2018-07-17T09:34:35.398Z,6.00
2018-07-17T09:37:03.733Z,4.87
2018-07-17T09:39:32.169Z,4.80
2018-07-17T09:42:00.491Z,3.70
2018-07-17T09:44:29.398Z,4.00
2018-07-17T09:46:57.737Z,4.03
2018-07-17T09:49:26.035Z,3.80
2018-07-17T09:51:54.388Z,3.77
2018-07-17T09:54:22.710Z,4.43
2018-07-17T09:56:51.081Z,3.30
2018-07-17T09:59:20.040Z,3.60
2018-07-17T10:01:53.683Z,3.30
2018-07-17T10:04:22.024Z,3.00
2018-07-17T10:06:50.333Z,3.47
2018-07-17T10:09:18.650Z,3.20
2018-07-17T10:11:46.993Z,3.23
2018-07-17T10:14:15.355Z,2.70
2018-07-17T10:16:43.716Z,2.77
2018-07-17T10:19:12.059Z,2.70
2018-07-17T10:21:40.435Z,3.17
2018-07-17T10:24:08.840Z,2.80
2018-07-17T10:26:37.313Z,2.80
2018-07-17T10:29:05.563Z,3.20
2018-07-17T10:31:33.880Z,2.13
2018-07-17T10:34:02.205Z,2.03
2018-07-17T10:36:30.528Z,2.30
2018-07-17T10:38:58.828Z,1.87
2018-07-17T10:41:27.156Z,2.27
2018-07-17T10:43:55.527Z,2.57
2018-07-17T10:46:23.848Z,2.23
2018-07-17T10:48:52.173Z,1.73
2018-07-17T10:51:20.479Z,3.13
2018-07-17T10:53:48.800Z,2.33
2018-07-17T10:56:17.107Z,1.93
2018-07-17T10:58:45.444Z,2.00
2018-07-17T11:01:13.772Z,1.77
2018-07-17T11:03:42.075Z,1.87
2018-07-17T11:06:10.396Z,1.70
2018-07-17T11:08:39.124Z,1.73
2018-07-17T11:11:07.956Z,1.80
2018-07-17T11:13:36.286Z,2.17
2018-07-17T11:16:05.572Z,1.80
2018-07-17T11:18:33.891Z,2.13
2018-07-17T11:21:02.229Z,2.07
2018-07-17T11:23:30.564Z,1.83
2018-07-17T11:25:58.885Z,1.50
2018-07-17T11:28:27.268Z,1.70
2018-07-17T11:30:55.704Z,1.60
2018-07-17T11:33:24.008Z,2.43
2018-07-17T11:35:52.332Z,1.60
2018-07-17T11:38:20.658Z,1.93
2018-07-17T11:40:48.968Z,1.60
2018-07-17T11:43:17.316Z,1.77
2018-07-17T11:45:45.637Z,1.37
2018-07-17T11:48:13.977Z,1.67
2018-07-17T11:50:42.287Z,1.50
2018-07-17T11:53:10.658Z,1.80
2018-07-17T11:55:39.026Z,2.03
2018-07-17T11:58:07.383Z,2.03
2018-07-17T12:00:35.689Z,2.27
2018-07-17T12:03:04.016Z,2.20
2018-07-17T12:05:32.384Z,2.07
2018-07-17T12:08:00.644Z,2.10
2018-07-17T12:10:28.991Z,2.70
2018-07-17T12:12:57.329Z,2.50
2018-07-17T12:15:25.652Z,1.93
2018-07-17T12:17:53.975Z,2.67
2018-07-17T12:20:22.491Z,2.20
2018-07-17T12:22:50.696Z,1.90
2018-07-17T12:25:19.063Z,2.27
2018-07-17T12:27:47.380Z,1.70
2018-07-17T12:30:15.740Z,2.10
2018-07-17T12:32:45.068Z,2.40
2018-07-17T12:35:13.956Z,2.30
2018-07-17T12:37:42.307Z,2.67
2018-07-17T12:40:10.625Z,3.33
2018-07-17T12:42:39.910Z,2.70
2018-07-17T12:45:08.256Z,1.97
2018-07-17T12:47:36.576Z,3.03
2018-07-17T12:50:05.447Z,2.40
2018-07-17T12:52:33.648Z,2.50
2018-07-17T12:55:03.332Z,2.40
2018-07-17T12:57:31.620Z,2.33
2018-07-17T13:00:00.644Z,1.90
2018-07-17T13:02:28.963Z,2.37
2018-07-17T13:04:57.276Z,2.10
2018-07-17T13:07:25.586Z,1.80
2018-07-17T13:09:53.909Z,1.80
2018-07-17T13:12:22.204Z,1.67
2018-07-17T13:14:50.573Z,1.93
2018-07-17T13:17:18.883Z,1.90
2018-07-17T13:19:47.212Z,2.40
2018-07-17T13:22:15.525Z,2.40
2018-07-17T13:24:43.840Z,7.23
2018-07-17T13:27:12.160Z,2.13
2018-07-17T13:29:40.523Z,3.10
2018-07-17T13:32:08.843Z,5.00
2018-07-17T13:34:37.172Z,3.97
2018-07-17T13:37:05.490Z,4.73
2018-07-17T13:39:33.815Z,4.50
2018-07-17T13:42:02.135Z,2.40
2018-07-17T13:44:30.516Z,2.20
2018-07-17T13:46:58.825Z,2.10
2018-07-17T13:49:27.116Z,1.83
2018-07-17T13:51:55.439Z,1.80
2018-07-17T13:54:23.740Z,2.10
2018-07-17T13:56:52.068Z,2.60
2018-07-17T13:59:20.403Z,1.73
2018-07-17T14:01:48.715Z,1.97
2018-07-17T14:04:16.992Z,2.17
2018-07-17T14:06:46.067Z,2.23
2018-07-17T14:09:14.371Z,2.07
2018-07-17T14:11:42.691Z,1.63
2018-07-17T14:14:10.995Z,2.67
2018-07-17T14:16:39.301Z,2.10
2018-07-17T14:19:07.749Z,1.90
2018-07-17T14:21:36.101Z,1.90
2018-07-17T14:24:04.498Z,2.10
2018-07-17T14:26:33.185Z,2.03
2018-07-17T14:29:01.496Z,1.63
2018-07-17T14:31:29.985Z,2.47
2018-07-17T14:33:58.316Z,2.43
2018-07-17T14:36:26.616Z,2.10
2018-07-17T14:38:55.043Z,1.70
2018-07-17T14:41:23.312Z,1.70
2018-07-17T14:43:51.635Z,2.13
2018-07-17T14:46:19.940Z,1.80
2018-07-17T14:48:48.285Z,2.73
2018-07-17T14:51:16.584Z,1.80
2018-07-17T14:53:44.900Z,1.80
2018-07-17T14:56:13.251Z,2.10
2018-07-17T14:58:42.336Z,2.03
2018-07-17T15:01:10.796Z,2.23
2018-07-17T15:03:39.127Z,2.57
2018-07-17T15:06:07.463Z,2.43
2018-07-17T15:08:35.788Z,2.20
2018-07-17T15:11:04.246Z,1.73
2018-07-17T15:13:32.559Z,2.07
2018-07-17T15:16:01.018Z,2.37
2018-07-17T15:18:29.232Z,2.17
2018-07-17T15:20:57.596Z,2.20
2018-07-17T15:23:25.944Z,2.30
2018-07-17T15:25:54.248Z,2.20
2018-07-17T15:28:22.664Z,2.60
2018-07-17T15:30:51.154Z,2.17
2018-07-17T15:33:19.473Z,2.30
2018-07-17T15:35:47.976Z,2.07
2018-07-17T15:38:16.335Z,2.80
2018-07-17T15:40:44.660Z,2.20
2018-07-17T15:43:12.986Z,2.43
2018-07-17T15:45:41.394Z,2.80
2018-07-17T15:48:09.772Z,2.67
2018-07-17T15:50:38.088Z,2.50
2018-07-17T15:53:06.428Z,2.37
2018-07-17T15:55:34.775Z,2.77
2018-07-17T15:58:03.282Z,3.33
2018-07-17T16:00:31.653Z,4.13
2018-07-17T16:03:00.008Z,4.97
2018-07-17T16:05:28.336Z,2.77
2018-07-17T16:07:56.656Z,2.83
2018-07-17T16:10:24.990Z,2.67
2018-07-17T16:12:53.332Z,6.47
2018-07-17T16:15:21.695Z,5.70
2018-07-17T16:17:50.713Z,2.50
2018-07-17T16:20:19.125Z,2.77
2018-07-17T16:22:47.432Z,2.63
2018-07-17T16:25:15.758Z,2.47
2018-07-17T16:27:44.157Z,3.00
2018-07-17T16:30:13.456Z,2.37
2018-07-17T16:32:41.786Z,2.50
2018-07-17T16:35:10.127Z,2.13
2018-07-17T16:37:39.055Z,2.17
2018-07-17T16:40:07.467Z,2.90
2018-07-17T16:42:35.896Z,2.60
2018-07-17T16:45:05.244Z,2.37
2018-07-17T16:47:33.704Z,2.63
2018-07-17T16:50:02.138Z,2.87
2018-07-17T16:52:30.484Z,2.30
2018-07-17T16:54:58.817Z,2.20
2018-07-17T16:57:27.152Z,2.77
2018-07-17T16:59:55.452Z,4.03
2018-07-17T17:02:23.793Z,3.00
2018-07-17T17:04:52.136Z,3.40
2018-07-17T17:07:20.472Z,3.10
2018-07-17T17:09:48.853Z,3.40
2018-07-17T17:12:17.215Z,2.40
2018-07-17T17:14:45.558Z,5.00
2018-07-17T17:17:13.893Z,3.33
2018-07-17T17:19:42.298Z,3.00
2018-07-17T17:22:11.744Z,3.20
2018-07-17T17:24:40.158Z,3.30
2018-07-17T17:27:08.432Z,3.40
2018-07-17T17:29:36.843Z,3.40
2018-07-17T17:32:05.152Z,3.77
2018-07-17T17:34:33.507Z,3.60
2018-07-17T17:37:01.862Z,3.80
2018-07-17T17:39:30.247Z,3.20
2018-07-17T17:41:58.565Z,3.50
2018-07-17T17:44:26.889Z,4.00
2018-07-17T17:46:55.232Z,3.40
2018-07-17T17:49:23.572Z,2.83
2018-07-17T17:51:51.877Z,3.90
2018-07-17T17:54:20.236Z,3.77
2018-07-17T17:56:48.564Z,3.20
2018-07-17T17:59:17.005Z,7.90
2018-07-17T18:01:45.303Z,3.57
2018-07-17T18:04:13.727Z,2.53
2018-07-17T18:06:42.051Z,2.40
2018-07-17T18:09:10.375Z,2.10
2018-07-17T18:11:38.703Z,2.20
2018-07-17T18:14:07.016Z,2.73
2018-07-17T18:16:35.493Z,1.87
2018-07-17T18:19:03.891Z,2.10
2018-07-17T18:21:32.231Z,2.10
2018-07-17T18:24:00.588Z,1.90
2018-07-17T18:26:28.957Z,1.90
2018-07-17T18:28:57.358Z,1.87
2018-07-17T18:31:26.323Z,2.10
2018-07-17T18:33:54.636Z,1.77
2018-07-17T18:36:22.955Z,1.80
2018-07-17T18:38:51.321Z,1.80
2018-07-17T18:41:19.635Z,2.10
2018-07-17T18:43:47.951Z,1.70
2018-07-17T18:46:16.256Z,1.83
2018-07-17T18:48:47.905Z,1.60
2018-07-17T18:51:16.892Z,1.80
2018-07-17T18:53:45.630Z,1.70
2018-07-17T18:56:14.249Z,1.83
2018-07-17T18:58:43.456Z,1.93
2018-07-17T19:01:11.771Z,2.33
2018-07-17T19:03:40.228Z,1.50
2018-07-17T19:06:09.304Z,2.20
2018-07-17T19:08:38.515Z,1.97
2018-07-17T19:11:07.047Z,1.77
2018-07-17T19:13:35.364Z,2.27
2018-07-17T19:16:03.725Z,2.67
2018-07-17T19:18:32.044Z,2.50
2018-07-17T19:21:00.375Z,3.67
2018-07-17T19:23:28.681Z,2.50
2018-07-17T19:25:58.483Z,2.20
2018-07-17T19:28:26.831Z,2.57
2018-07-17T19:30:55.152Z,2.83
2018-07-17T19:33:24.092Z,1.93
2018-07-17T19:35:52.454Z,2.53
2018-07-17T19:38:20.761Z,2.50
2018-07-17T19:40:49.213Z,3.27
2018-07-17T19:43:17.439Z,2.87
2018-07-17T19:45:45.754Z,2.80
2018-07-17T19:48:14.131Z,2.30
2018-07-17T19:50:42.436Z,2.50
2018-07-17T19:53:10.804Z,3.77
2018-07-17T19:55:39.103Z,2.97
2018-07-17T19:58:07.520Z,2.50
2018-07-17T20:00:35.857Z,4.00
2018-07-17T20:03:04.560Z,2.87
2018-07-17T20:05:32.855Z,2.87
2018-07-17T20:08:01.212Z,2.60
2018-07-17T20:10:29.571Z,3.17
2018-07-17T20:12:57.896Z,2.90
2018-07-17T20:15:26.217Z,2.77
2018-07-17T20:17:54.913Z,3.30
2018-07-17T20:20:23.266Z,3.53
2018-07-17T20:22:51.765Z,3.27
2018-07-17T20:25:20.097Z,2.97
2018-07-17T20:27:48.480Z,3.03
2018-07-17T20:30:16.519Z,3.13
2018-07-17T20:32:44.836Z,3.20
2018-07-17T20:35:13.244Z,3.20
2018-07-17T20:37:41.641Z,2.73
2018-07-17T20:40:10.335Z,3.47
2018-07-17T20:42:38.873Z,2.70
2018-07-17T20:45:07.855Z,2.47
2018-07-17T20:47:36.297Z,2.50
2018-07-17T20:50:05.052Z,2.63
2018-07-17T20:52:36.188Z,3.07
2018-07-17T20:55:05.009Z,2.37
2018-07-17T20:57:34.260Z,3.00
2018-07-17T21:00:02.572Z,2.40
2018-07-17T21:02:30.883Z,2.27
2018-07-17T21:04:59.808Z,2.50
2018-07-17T21:07:28.100Z,3.23
2018-07-17T21:09:56.967Z,2.30
2018-07-17T21:12:25.329Z,3.33
2018-07-17T21:14:53.691Z,3.10
2018-07-17T21:17:22.023Z,2.50
2018-07-17T21:19:50.344Z,2.50
2018-07-17T21:22:18.675Z,2.60
2018-07-17T21:24:46.982Z,2.67
2018-07-17T21:27:15.536Z,3.57
2018-07-17T21:29:43.892Z,2.50
2018-07-17T21:32:12.482Z,2.43
2018-07-17T21:34:40.996Z,2.83
2018-07-17T21:37:09.531Z,3.50
2018-07-17T21:39:38.500Z,2.80
2018-07-17T21:42:07.137Z,2.73
2018-07-17T21:44:35.579Z,3.13
2018-07-17T21:47:03.914Z,2.80
2018-07-17T21:49:32.559Z,2.43
2018-07-17T21:52:00.865Z,3.33
2018-07-17T21:54:29.508Z,2.70
2018-07-17T21:56:57.823Z,2.30
2018-07-17T21:59:26.153Z,2.60
2018-07-17T22:01:54.476Z,2.57
2018-07-17T22:04:22.804Z,2.93
2018-07-17T22:06:51.100Z,2.70
2018-07-17T22:09:19.396Z,2.40
2018-07-17T22:11:47.770Z,2.60
2018-07-17T22:14:16.151Z,2.80
2018-07-17T22:16:44.539Z,3.07
2018-07-17T22:19:12.876Z,2.90
2018-07-17T22:21:41.240Z,3.20
2018-07-17T22:24:09.561Z,2.77
2018-07-17T22:26:37.876Z,3.03
2018-07-17T22:29:06.269Z,3.27
2018-07-17T22:31:34.619Z,2.87
2018-07-17T22:34:02.930Z,3.60
2018-07-17T22:36:31.248Z,3.47
2018-07-17T22:38:59.572Z,3.80
2018-07-17T22:41:28.025Z,10.53
2018-07-17T22:43:56.367Z,7.80
2018-07-17T22:46:24.740Z,12.60
2018-07-17T22:48:53.059Z,3.73
2018-07-17T22:51:21.356Z,4.03
2018-07-17T22:53:49.696Z,3.60
2018-07-17T22:56:18.541Z,4.27
2018-07-17T22:58:46.836Z,4.10
2018-07-17T23:01:15.154Z,4.53
2018-07-17T23:03:43.480Z,8.07
2018-07-17T23:06:11.818Z,4.87
2018-07-17T23:08:40.189Z,6.80
2018-07-17T23:11:08.499Z,10.30
2018-07-17T23:13:36.865Z,7.97
2018-07-17T23:16:05.300Z,13.90
2018-07-17T23:18:34.907Z,4.20
2018-07-17T23:21:03.244Z,4.27
2018-07-17T23:23:31.591Z,4.17
2018-07-17T23:25:59.963Z,4.13
2018-07-17T23:28:28.267Z,4.70
2018-07-17T23:30:56.578Z,4.87
2018-07-17T23:33:24.880Z,4.47
2018-07-17T23:35:53.240Z,4.13
2018-07-17T23:38:21.552Z,4.43
2018-07-17T23:40:49.859Z,4.90
2018-07-17T23:43:18.172Z,4.40
2018-07-17T23:45:46.504Z,5.00
2018-07-17T23:48:14.800Z,4.70
2018-07-17T23:50:43.122Z,4.70
2018-07-17T23:53:11.436Z,4.67
2018-07-17T23:55:39.763Z,4.33
2018-07-17T23:58:08.119Z,4.90
